sensor_id;sensor_type;location;lat;lon;timestamp;P1;durP1;ratioP1;P2;durP2;ratioP2
19891;SDS011;10108;50.142;8.724;2023-03-05T00:01:06;23.80;;;10.65;;
19891;SDS011;10108;50.142;8.724;2023-03-05T00:03:33;20.52;;;11.13;;
19891;SDS011;10108;50.142;8.724;2023-03-05T00:05:59;21.23;;;11.00;;
19891;SDS011;10108;50.142;8.724;2023-03-05T00:08:26;17.80;;;10.63;;
19891;SDS011;10108;50.142;8.724;2023-03-05T00:10:56;20.42;;;10.90;;
19891;SDS011;10108;50.142;8.724;2023-03-05T00:13:23;16.95;;;10.48;;
19891;SDS011;10108;50.142;8.724;2023-03-05T00:15:50;20.83;;;10.43;;
19891;SDS011;10108;50.142;8.724;2023-03-05T00:18:16;17.40;;;10.57;;
19891;SDS011;10108;50.142;8.724;2023-03-05T00:20:42;18.00;;;10.13;;
19891;SDS011;10108;50.142;8.724;2023-03-05T00:23:08;21.05;;;10.05;;
19891;SDS011;10108;50.142;8.724;2023-03-05T00:25:35;15.52;;;9.77;;
19891;SDS011;10108;50.142;8.724;2023-03-05T00:28:01;13.55;;;8.90;;
19891;SDS011;10108;50.142;8.724;2023-03-05T00:30:28;18.73;;;8.95;;
19891;SDS011;10108;50.142;8.724;2023-03-05T00:32:55;14.02;;;8.30;;
19891;SDS011;10108;50.142;8.724;2023-03-05T00:35:21;13.15;;;8.10;;
19891;SDS011;10108;50.142;8.724;2023-03-05T00:37:47;16.70;;;8.23;;
19891;SDS011;10108;50.142;8.724;2023-03-05T00:40:13;14.25;;;7.60;;
19891;SDS011;10108;50.142;8.724;2023-03-05T00:42:40;17.17;;;7.93;;
19891;SDS011;10108;50.142;8.724;2023-03-05T00:45:07;15.70;;;8.00;;
19891;SDS011;10108;50.142;8.724;2023-03-05T00:47:34;18.15;;;8.27;;
19891;SDS011;10108;50.142;8.724;2023-03-05T00:50:01;15.60;;;8.23;;
19891;SDS011;10108;50.142;8.724;2023-03-05T00:52:28;15.15;;;7.63;;
19891;SDS011;10108;50.142;8.724;2023-03-05T00:54:54;15.20;;;7.70;;
19891;SDS011;10108;50.142;8.724;2023-03-05T00:57:20;13.82;;;7.20;;
19891;SDS011;10108;50.142;8.724;2023-03-05T00:59:47;22.05;;;7.60;;
19891;SDS011;10108;50.142;8.724;2023-03-05T01:02:13;12.85;;;7.55;;
19891;SDS011;10108;50.142;8.724;2023-03-05T01:04:39;11.15;;;7.38;;
19891;SDS011;10108;50.142;8.724;2023-03-05T01:07:06;13.48;;;7.10;;
19891;SDS011;10108;50.142;8.724;2023-03-05T01:09:32;14.80;;;7.13;;
19891;SDS011;10108;50.142;8.724;2023-03-05T01:11:58;12.70;;;7.05;;
19891;SDS011;10108;50.142;8.724;2023-03-05T01:14:25;14.43;;;7.20;;
19891;SDS011;10108;50.142;8.724;2023-03-05T01:16:53;14.98;;;6.93;;
19891;SDS011;10108;50.142;8.724;2023-03-05T01:19:19;12.30;;;6.75;;
19891;SDS011;10108;50.142;8.724;2023-03-05T01:21:45;18.00;;;6.93;;
19891;SDS011;10108;50.142;8.724;2023-03-05T01:24:11;13.20;;;6.72;;
19891;SDS011;10108;50.142;8.724;2023-03-05T01:26:37;12.57;;;7.22;;
19891;SDS011;10108;50.142;8.724;2023-03-05T01:29:04;18.98;;;7.93;;
19891;SDS011;10108;50.142;8.724;2023-03-05T01:31:30;15.35;;;7.85;;
19891;SDS011;10108;50.142;8.724;2023-03-05T01:33:56;13.80;;;8.05;;
19891;SDS011;10108;50.142;8.724;2023-03-05T01:36:24;13.60;;;8.23;;
19891;SDS011;10108;50.142;8.724;2023-03-05T01:38:50;13.13;;;7.28;;
19891;SDS011;10108;50.142;8.724;2023-03-05T01:41:17;14.43;;;7.43;;
19891;SDS011;10108;50.142;8.724;2023-03-05T01:43:46;16.83;;;8.15;;
19891;SDS011;10108;50.142;8.724;2023-03-05T01:49:37;14.85;;;6.97;;
19891;SDS011;10108;50.142;8.724;2023-03-05T01:51:42;12.85;;;7.50;;
19891;SDS011;10108;50.142;8.724;2023-03-05T01:54:31;14.13;;;6.82;;
19891;SDS011;10108;50.142;8.724;2023-03-05T01:57:04;12.07;;;6.47;;
19891;SDS011;10108;50.142;8.724;2023-03-05T01:59:37;16.83;;;7.47;;
19891;SDS011;10108;50.142;8.724;2023-03-05T02:02:06;14.90;;;7.28;;
19891;SDS011;10108;50.142;8.724;2023-03-05T02:04:54;12.43;;;6.68;;
19891;SDS011;10108;50.142;8.724;2023-03-05T02:07:20;12.35;;;7.05;;
19891;SDS011;10108;50.142;8.724;2023-03-05T02:09:47;12.45;;;7.30;;
19891;SDS011;10108;50.142;8.724;2023-03-05T02:12:14;12.95;;;6.78;;
19891;SDS011;10108;50.142;8.724;2023-03-05T02:14:44;14.07;;;7.00;;
19891;SDS011;10108;50.142;8.724;2023-03-05T02:17:12;16.05;;;6.65;;
19891;SDS011;10108;50.142;8.724;2023-03-05T02:19:50;12.65;;;6.90;;
19891;SDS011;10108;50.142;8.724;2023-03-05T02:22:22;12.60;;;6.75;;
19891;SDS011;10108;50.142;8.724;2023-03-05T02:24:49;14.13;;;6.45;;
19891;SDS011;10108;50.142;8.724;2023-03-05T02:27:15;12.38;;;6.30;;
19891;SDS011;10108;50.142;8.724;2023-03-05T02:29:44;9.88;;;6.20;;
19891;SDS011;10108;50.142;8.724;2023-03-05T02:32:11;10.88;;;6.65;;
19891;SDS011;10108;50.142;8.724;2023-03-05T02:34:38;14.48;;;6.50;;
19891;SDS011;10108;50.142;8.724;2023-03-05T02:37:05;13.05;;;6.63;;
19891;SDS011;10108;50.142;8.724;2023-03-05T02:39:35;15.18;;;6.70;;
19891;SDS011;10108;50.142;8.724;2023-03-05T02:42:02;10.13;;;6.03;;
19891;SDS011;10108;50.142;8.724;2023-03-05T02:44:28;15.57;;;6.63;;
19891;SDS011;10108;50.142;8.724;2023-03-05T02:46:55;12.23;;;6.85;;
19891;SDS011;10108;50.142;8.724;2023-03-05T02:49:21;14.80;;;7.18;;
19891;SDS011;10108;50.142;8.724;2023-03-05T02:51:47;13.88;;;6.47;;
19891;SDS011;10108;50.142;8.724;2023-03-05T02:54:14;14.98;;;6.50;;
19891;SDS011;10108;50.142;8.724;2023-03-05T02:56:40;10.48;;;6.35;;
19891;SDS011;10108;50.142;8.724;2023-03-05T02:59:08;11.77;;;6.53;;
19891;SDS011;10108;50.142;8.724;2023-03-05T03:01:34;11.05;;;6.40;;
19891;SDS011;10108;50.142;8.724;2023-03-05T03:04:00;13.77;;;6.68;;
19891;SDS011;10108;50.142;8.724;2023-03-05T03:06:27;15.02;;;7.13;;
19891;SDS011;10108;50.142;8.724;2023-03-05T03:08:53;14.68;;;6.95;;
19891;SDS011;10108;50.142;8.724;2023-03-05T03:11:20;12.35;;;6.90;;
19891;SDS011;10108;50.142;8.724;2023-03-05T03:13:46;15.13;;;7.25;;
19891;SDS011;10108;50.142;8.724;2023-03-05T03:16:13;11.88;;;7.10;;
19891;SDS011;10108;50.142;8.724;2023-03-05T03:18:40;12.93;;;7.32;;
19891;SDS011;10108;50.142;8.724;2023-03-05T03:21:07;15.25;;;7.18;;
19891;SDS011;10108;50.142;8.724;2023-03-05T03:23:33;11.98;;;7.30;;
19891;SDS011;10108;50.142;8.724;2023-03-05T03:26:00;12.88;;;7.68;;
19891;SDS011;10108;50.142;8.724;2023-03-05T03:28:26;38.17;;;12.65;;
19891;SDS011;10108;50.142;8.724;2023-03-05T03:30:53;19.50;;;9.00;;
19891;SDS011;10108;50.142;8.724;2023-03-05T03:33:19;14.52;;;7.80;;
19891;SDS011;10108;50.142;8.724;2023-03-05T03:35:45;13.45;;;7.30;;
19891;SDS011;10108;50.142;8.724;2023-03-05T03:38:12;16.13;;;8.32;;
19891;SDS011;10108;50.142;8.724;2023-03-05T03:40:39;11.38;;;7.35;;
19891;SDS011;10108;50.142;8.724;2023-03-05T03:43:06;13.77;;;7.45;;
19891;SDS011;10108;50.142;8.724;2023-03-05T03:45:33;16.85;;;7.50;;
19891;SDS011;10108;50.142;8.724;2023-03-05T03:47:59;12.98;;;6.68;;
19891;SDS011;10108;50.142;8.724;2023-03-05T03:50:26;17.02;;;7.07;;
19891;SDS011;10108;50.142;8.724;2023-03-05T03:52:52;9.45;;;6.55;;
19891;SDS011;10108;50.142;8.724;2023-03-05T03:55:19;14.00;;;6.53;;
19891;SDS011;10108;50.142;8.724;2023-03-05T03:57:45;12.75;;;6.57;;
19891;SDS011;10108;50.142;8.724;2023-03-05T04:00:12;15.18;;;7.00;;
19891;SDS011;10108;50.142;8.724;2023-03-05T04:02:38;11.77;;;6.20;;
19891;SDS011;10108;50.142;8.724;2023-03-05T04:05:05;12.75;;;6.82;;
19891;SDS011;10108;50.142;8.724;2023-03-05T04:07:31;12.18;;;6.60;;
19891;SDS011;10108;50.142;8.724;2023-03-05T04:09:58;13.43;;;6.30;;
19891;SDS011;10108;50.142;8.724;2023-03-05T04:12:24;14.43;;;6.38;;
19891;SDS011;10108;50.142;8.724;2023-03-05T04:14:51;11.85;;;6.20;;
19891;SDS011;10108;50.142;8.724;2023-03-05T04:17:17;17.15;;;6.57;;
19891;SDS011;10108;50.142;8.724;2023-03-05T04:19:44;10.82;;;6.13;;
19891;SDS011;10108;50.142;8.724;2023-03-05T04:22:11;10.85;;;5.80;;
19891;SDS011;10108;50.142;8.724;2023-03-05T04:24:37;10.95;;;6.03;;
19891;SDS011;10108;50.142;8.724;2023-03-05T04:27:04;9.98;;;5.50;;
19891;SDS011;10108;50.142;8.724;2023-03-05T04:29:31;9.40;;;5.60;;
19891;SDS011;10108;50.142;8.724;2023-03-05T04:31:58;9.02;;;5.10;;
19891;SDS011;10108;50.142;8.724;2023-03-05T04:34:25;10.00;;;5.18;;
19891;SDS011;10108;50.142;8.724;2023-03-05T04:36:51;12.80;;;5.25;;
19891;SDS011;10108;50.142;8.724;2023-03-05T04:39:17;8.68;;;5.15;;
19891;SDS011;10108;50.142;8.724;2023-03-05T04:41:48;9.18;;;5.03;;
19891;SDS011;10108;50.142;8.724;2023-03-05T04:44:14;10.13;;;5.20;;
19891;SDS011;10108;50.142;8.724;2023-03-05T04:46:42;9.15;;;5.10;;
19891;SDS011;10108;50.142;8.724;2023-03-05T04:49:08;11.27;;;5.32;;
19891;SDS011;10108;50.142;8.724;2023-03-05T04:51:35;12.77;;;5.10;;
19891;SDS011;10108;50.142;8.724;2023-03-05T04:54:01;10.93;;;4.78;;
19891;SDS011;10108;50.142;8.724;2023-03-05T04:56:28;9.65;;;4.90;;
19891;SDS011;10108;50.142;8.724;2023-03-05T04:58:54;6.80;;;4.60;;
19891;SDS011;10108;50.142;8.724;2023-03-05T05:01:20;8.10;;;4.70;;
19891;SDS011;10108;50.142;8.724;2023-03-05T05:03:47;8.65;;;5.00;;
19891;SDS011;10108;50.142;8.724;2023-03-05T05:06:13;7.68;;;5.40;;
19891;SDS011;10108;50.142;8.724;2023-03-05T05:08:40;9.38;;;4.90;;
19891;SDS011;10108;50.142;8.724;2023-03-05T05:11:10;12.88;;;5.05;;
19891;SDS011;10108;50.142;8.724;2023-03-05T05:13:38;9.85;;;4.70;;
19891;SDS011;10108;50.142;8.724;2023-03-05T05:16:05;8.93;;;4.70;;
19891;SDS011;10108;50.142;8.724;2023-03-05T05:18:31;8.48;;;4.82;;
19891;SDS011;10108;50.142;8.724;2023-03-05T05:20:58;8.65;;;4.63;;
19891;SDS011;10108;50.142;8.724;2023-03-05T05:23:25;6.90;;;4.72;;
19891;SDS011;10108;50.142;8.724;2023-03-05T05:26:01;7.50;;;4.80;;
19891;SDS011;10108;50.142;8.724;2023-03-05T05:28:28;8.88;;;4.90;;
19891;SDS011;10108;50.142;8.724;2023-03-05T05:30:55;9.15;;;4.60;;
19891;SDS011;10108;50.142;8.724;2023-03-05T05:33:21;7.70;;;4.75;;
19891;SDS011;10108;50.142;8.724;2023-03-05T05:35:48;6.97;;;4.60;;
19891;SDS011;10108;50.142;8.724;2023-03-05T05:38:15;7.82;;;4.78;;
19891;SDS011;10108;50.142;8.724;2023-03-05T05:40:41;10.48;;;4.95;;
19891;SDS011;10108;50.142;8.724;2023-03-05T05:43:08;8.02;;;4.75;;
19891;SDS011;10108;50.142;8.724;2023-03-05T05:45:36;7.18;;;4.93;;
19891;SDS011;10108;50.142;8.724;2023-03-05T05:48:03;7.55;;;4.60;;
19891;SDS011;10108;50.142;8.724;2023-03-05T05:50:29;6.88;;;4.70;;
19891;SDS011;10108;50.142;8.724;2023-03-05T05:52:56;7.60;;;4.80;;
19891;SDS011;10108;50.142;8.724;2023-03-05T05:55:22;7.68;;;4.70;;
19891;SDS011;10108;50.142;8.724;2023-03-05T05:57:48;9.60;;;5.00;;
19891;SDS011;10108;50.142;8.724;2023-03-05T06:00:15;8.70;;;5.03;;
19891;SDS011;10108;50.142;8.724;2023-03-05T06:02:41;9.63;;;4.57;;
19891;SDS011;10108;50.142;8.724;2023-03-05T06:05:10;8.10;;;5.22;;
19891;SDS011;10108;50.142;8.724;2023-03-05T06:07:36;12.60;;;4.90;;
19891;SDS011;10108;50.142;8.724;2023-03-05T06:10:03;6.65;;;4.90;;
19891;SDS011;10108;50.142;8.724;2023-03-05T06:12:29;9.10;;;4.82;;
19891;SDS011;10108;50.142;8.724;2023-03-05T06:14:56;8.13;;;4.97;;
19891;SDS011;10108;50.142;8.724;2023-03-05T06:17:22;9.48;;;4.80;;
19891;SDS011;10108;50.142;8.724;2023-03-05T06:19:49;10.88;;;4.68;;
19891;SDS011;10108;50.142;8.724;2023-03-05T06:22:15;9.32;;;4.72;;
19891;SDS011;10108;50.142;8.724;2023-03-05T06:24:42;6.15;;;4.80;;
19891;SDS011;10108;50.142;8.724;2023-03-05T06:27:08;7.88;;;4.80;;
19891;SDS011;10108;50.142;8.724;2023-03-05T06:29:35;8.90;;;4.63;;
19891;SDS011;10108;50.142;8.724;2023-03-05T06:32:01;8.00;;;5.10;;
19891;SDS011;10108;50.142;8.724;2023-03-05T06:34:29;8.65;;;5.07;;
19891;SDS011;10108;50.142;8.724;2023-03-05T06:36:55;5.82;;;4.60;;
19891;SDS011;10108;50.142;8.724;2023-03-05T06:39:21;8.48;;;4.72;;
19891;SDS011;10108;50.142;8.724;2023-03-05T06:41:51;9.93;;;4.78;;
19891;SDS011;10108;50.142;8.724;2023-03-05T06:44:17;8.43;;;4.75;;
19891;SDS011;10108;50.142;8.724;2023-03-05T06:46:44;8.82;;;4.80;;
19891;SDS011;10108;50.142;8.724;2023-03-05T06:49:10;6.65;;;4.47;;
19891;SDS011;10108;50.142;8.724;2023-03-05T06:51:37;11.20;;;4.95;;
19891;SDS011;10108;50.142;8.724;2023-03-05T06:54:05;8.82;;;4.70;;
19891;SDS011;10108;50.142;8.724;2023-03-05T06:56:34;9.02;;;5.00;;
19891;SDS011;10108;50.142;8.724;2023-03-05T06:59:00;8.20;;;5.43;;
19891;SDS011;10108;50.142;8.724;2023-03-05T07:01:27;9.30;;;5.00;;
19891;SDS011;10108;50.142;8.724;2023-03-05T07:03:54;11.00;;;5.82;;
19891;SDS011;10108;50.142;8.724;2023-03-05T07:06:23;8.60;;;4.88;;
19891;SDS011;10108;50.142;8.724;2023-03-05T07:08:49;9.05;;;5.00;;
19891;SDS011;10108;50.142;8.724;2023-03-05T07:11:17;9.77;;;5.30;;
19891;SDS011;10108;50.142;8.724;2023-03-05T07:13:44;12.63;;;5.10;;
19891;SDS011;10108;50.142;8.724;2023-03-05T07:16:13;11.35;;;5.47;;
19891;SDS011;10108;50.142;8.724;2023-03-05T07:18:39;13.32;;;5.38;;
19891;SDS011;10108;50.142;8.724;2023-03-05T07:21:06;10.93;;;5.82;;
19891;SDS011;10108;50.142;8.724;2023-03-05T07:23:33;8.70;;;5.40;;
19891;SDS011;10108;50.142;8.724;2023-03-05T07:26:00;11.27;;;6.00;;
19891;SDS011;10108;50.142;8.724;2023-03-05T07:28:27;11.25;;;5.50;;
19891;SDS011;10108;50.142;8.724;2023-03-05T07:30:57;9.65;;;5.75;;
19891;SDS011;10108;50.142;8.724;2023-03-05T07:33:24;11.07;;;5.80;;
19891;SDS011;10108;50.142;8.724;2023-03-05T07:35:51;8.90;;;5.63;;
19891;SDS011;10108;50.142;8.724;2023-03-05T07:38:17;11.57;;;6.30;;
19891;SDS011;10108;50.142;8.724;2023-03-05T07:40:44;10.88;;;6.55;;
19891;SDS011;10108;50.142;8.724;2023-03-05T07:43:11;12.10;;;6.35;;
19891;SDS011;10108;50.142;8.724;2023-03-05T07:45:38;13.77;;;7.18;;
19891;SDS011;10108;50.142;8.724;2023-03-05T07:48:05;15.20;;;6.68;;
19891;SDS011;10108;50.142;8.724;2023-03-05T07:50:32;16.60;;;6.90;;
19891;SDS011;10108;50.142;8.724;2023-03-05T07:52:59;13.27;;;6.32;;
19891;SDS011;10108;50.142;8.724;2023-03-05T07:55:25;12.55;;;6.78;;
19891;SDS011;10108;50.142;8.724;2023-03-05T07:57:51;14.40;;;7.05;;
19891;SDS011;10108;50.142;8.724;2023-03-05T08:00:18;12.73;;;7.10;;
19891;SDS011;10108;50.142;8.724;2023-03-05T08:02:44;14.60;;;7.65;;
19891;SDS011;10108;50.142;8.724;2023-03-05T08:05:12;13.32;;;7.45;;
19891;SDS011;10108;50.142;8.724;2023-03-05T08:07:39;13.90;;;6.72;;
19891;SDS011;10108;50.142;8.724;2023-03-05T08:10:06;14.50;;;7.20;;
19891;SDS011;10108;50.142;8.724;2023-03-05T08:12:32;17.80;;;7.43;;
19891;SDS011;10108;50.142;8.724;2023-03-05T08:14:59;13.57;;;6.97;;
19891;SDS011;10108;50.142;8.724;2023-03-05T08:17:25;19.73;;;9.10;;
19891;SDS011;10108;50.142;8.724;2023-03-05T08:19:52;16.52;;;7.90;;
19891;SDS011;10108;50.142;8.724;2023-03-05T08:22:22;16.55;;;8.15;;
19891;SDS011;10108;50.142;8.724;2023-03-05T08:24:48;14.70;;;7.70;;
19891;SDS011;10108;50.142;8.724;2023-03-05T08:27:16;16.08;;;8.80;;
19891;SDS011;10108;50.142;8.724;2023-03-05T08:29:42;15.57;;;8.45;;
19891;SDS011;10108;50.142;8.724;2023-03-05T08:32:09;17.70;;;8.73;;
19891;SDS011;10108;50.142;8.724;2023-03-05T08:34:35;15.90;;;7.65;;
19891;SDS011;10108;50.142;8.724;2023-03-05T08:37:02;16.48;;;8.32;;
19891;SDS011;10108;50.142;8.724;2023-03-05T08:39:28;15.00;;;8.57;;
19891;SDS011;10108;50.142;8.724;2023-03-05T08:41:55;16.55;;;8.68;;
19891;SDS011;10108;50.142;8.724;2023-03-05T08:44:21;16.58;;;8.10;;
19891;SDS011;10108;50.142;8.724;2023-03-05T08:46:47;18.15;;;9.10;;
19891;SDS011;10108;50.142;8.724;2023-03-05T08:49:14;16.13;;;8.45;;
19891;SDS011;10108;50.142;8.724;2023-03-05T08:51:40;15.77;;;8.18;;
19891;SDS011;10108;50.142;8.724;2023-03-05T08:54:07;18.17;;;8.77;;
19891;SDS011;10108;50.142;8.724;2023-03-05T08:56:34;15.60;;;7.68;;
19891;SDS011;10108;50.142;8.724;2023-03-05T08:59:01;15.35;;;8.02;;
19891;SDS011;10108;50.142;8.724;2023-03-05T09:01:28;17.10;;;8.10;;
19891;SDS011;10108;50.142;8.724;2023-03-05T09:03:57;14.68;;;7.70;;
19891;SDS011;10108;50.142;8.724;2023-03-05T09:06:23;15.52;;;8.68;;
19891;SDS011;10108;50.142;8.724;2023-03-05T09:08:50;18.17;;;8.18;;
19891;SDS011;10108;50.142;8.724;2023-03-05T09:11:17;15.27;;;7.72;;
19891;SDS011;10108;50.142;8.724;2023-03-05T09:13:43;14.98;;;7.88;;
19891;SDS011;10108;50.142;8.724;2023-03-05T09:16:11;17.98;;;7.60;;
19891;SDS011;10108;50.142;8.724;2023-03-05T09:18:38;13.07;;;7.22;;
19891;SDS011;10108;50.142;8.724;2023-03-05T09:21:09;15.73;;;7.20;;
19891;SDS011;10108;50.142;8.724;2023-03-05T09:23:36;13.63;;;7.40;;
19891;SDS011;10108;50.142;8.724;2023-03-05T09:26:05;15.27;;;7.90;;
19891;SDS011;10108;50.142;8.724;2023-03-05T09:28:32;13.98;;;7.10;;
19891;SDS011;10108;50.142;8.724;2023-03-05T09:31:02;15.13;;;7.75;;
19891;SDS011;10108;50.142;8.724;2023-03-05T09:33:30;15.32;;;8.10;;
19891;SDS011;10108;50.142;8.724;2023-03-05T09:35:56;17.55;;;7.70;;
19891;SDS011;10108;50.142;8.724;2023-03-05T09:38:23;15.30;;;7.40;;
19891;SDS011;10108;50.142;8.724;2023-03-05T09:40:58;14.40;;;8.07;;
19891;SDS011;10108;50.142;8.724;2023-03-05T09:43:33;14.75;;;7.90;;
19891;SDS011;10108;50.142;8.724;2023-03-05T09:46:17;16.75;;;8.60;;
19891;SDS011;10108;50.142;8.724;2023-03-05T09:48:52;15.40;;;8.02;;
19891;SDS011;10108;50.142;8.724;2023-03-05T09:51:23;16.63;;;8.55;;
19891;SDS011;10108;50.142;8.724;2023-03-05T09:53:56;15.80;;;7.63;;
19891;SDS011;10108;50.142;8.724;2023-03-05T09:56:58;17.25;;;8.13;;
19891;SDS011;10108;50.142;8.724;2023-03-05T09:59:19;14.55;;;7.25;;
19891;SDS011;10108;50.142;8.724;2023-03-05T10:01:49;15.65;;;7.43;;
19891;SDS011;10108;50.142;8.724;2023-03-05T10:04:22;15.18;;;7.40;;
19891;SDS011;10108;50.142;8.724;2023-03-05T10:09:26;17.02;;;8.07;;
19891;SDS011;10108;50.142;8.724;2023-03-05T10:11:58;19.83;;;8.23;;
19891;SDS011;10108;50.142;8.724;2023-03-05T10:20:00;17.15;;;8.98;;
19891;SDS011;10108;50.142;8.724;2023-03-05T10:25:06;17.67;;;8.35;;
19891;SDS011;10108;50.142;8.724;2023-03-05T10:27:54;16.58;;;8.02;;
19891;SDS011;10108;50.142;8.724;2023-03-05T10:33:07;15.18;;;6.93;;
19891;SDS011;10108;50.142;8.724;2023-03-05T10:38:20;18.33;;;8.63;;
19891;SDS011;10108;50.142;8.724;2023-03-05T10:40:52;17.80;;;8.50;;
19891;SDS011;10108;50.142;8.724;2023-03-05T10:43:24;16.08;;;7.50;;
19891;SDS011;10108;50.142;8.724;2023-03-05T10:45:53;14.40;;;6.65;;
19891;SDS011;10108;50.142;8.724;2023-03-05T10:48:25;14.73;;;7.40;;
19891;SDS011;10108;50.142;8.724;2023-03-05T10:50:54;13.20;;;7.28;;
19891;SDS011;10108;50.142;8.724;2023-03-05T10:53:24;14.68;;;7.10;;
19891;SDS011;10108;50.142;8.724;2023-03-05T10:55:52;13.38;;;6.53;;
19891;SDS011;10108;50.142;8.724;2023-03-05T10:58:21;14.15;;;7.55;;
19891;SDS011;10108;50.142;8.724;2023-03-05T11:03:23;17.27;;;7.88;;
19891;SDS011;10108;50.142;8.724;2023-03-05T11:05:59;17.05;;;8.15;;
19891;SDS011;10108;50.142;8.724;2023-03-05T11:08:27;16.60;;;8.15;;
19891;SDS011;10108;50.142;8.724;2023-03-05T11:13:42;15.35;;;7.97;;
19891;SDS011;10108;50.142;8.724;2023-03-05T11:16:15;19.98;;;8.95;;
19891;SDS011;10108;50.142;8.724;2023-03-05T11:18:42;19.25;;;8.82;;
19891;SDS011;10108;50.142;8.724;2023-03-05T11:21:24;20.40;;;7.95;;
19891;SDS011;10108;50.142;8.724;2023-03-05T11:24:02;15.02;;;7.47;;
19891;SDS011;10108;50.142;8.724;2023-03-05T11:26:29;14.88;;;7.43;;
19891;SDS011;10108;50.142;8.724;2023-03-05T11:28:59;17.55;;;8.25;;
19891;SDS011;10108;50.142;8.724;2023-03-05T11:31:27;15.88;;;8.13;;
19891;SDS011;10108;50.142;8.724;2023-03-05T11:36:21;18.65;;;8.48;;
19891;SDS011;10108;50.142;8.724;2023-03-05T11:38:56;18.50;;;9.18;;
19891;SDS011;10108;50.142;8.724;2023-03-05T11:41:26;17.60;;;9.35;;
19891;SDS011;10108;50.142;8.724;2023-03-05T11:43:53;17.33;;;9.50;;
19891;SDS011;10108;50.142;8.724;2023-03-05T11:46:21;18.63;;;9.40;;
19891;SDS011;10108;50.142;8.724;2023-03-05T11:48:47;17.10;;;8.98;;
19891;SDS011;10108;50.142;8.724;2023-03-05T11:51:23;19.60;;;9.05;;
19891;SDS011;10108;50.142;8.724;2023-03-05T11:53:54;20.23;;;9.23;;
19891;SDS011;10108;50.142;8.724;2023-03-05T11:56:29;16.45;;;8.80;;
19891;SDS011;10108;50.142;8.724;2023-03-05T12:01:31;13.93;;;7.80;;
19891;SDS011;10108;50.142;8.724;2023-03-05T12:04:01;14.85;;;7.95;;
19891;SDS011;10108;50.142;8.724;2023-03-05T12:08:57;17.13;;;7.93;;
19891;SDS011;10108;50.142;8.724;2023-03-05T12:11:31;13.38;;;8.05;;
19891;SDS011;10108;50.142;8.724;2023-03-05T12:16:47;16.67;;;8.65;;
19891;SDS011;10108;50.142;8.724;2023-03-05T12:21:57;16.25;;;7.70;;
19891;SDS011;10108;50.142;8.724;2023-03-05T12:29:36;14.95;;;7.70;;
19891;SDS011;10108;50.142;8.724;2023-03-05T12:32:04;14.68;;;7.70;;
19891;SDS011;10108;50.142;8.724;2023-03-05T12:37:10;15.68;;;7.60;;
19891;SDS011;10108;50.142;8.724;2023-03-05T12:47:41;13.43;;;7.43;;
19891;SDS011;10108;50.142;8.724;2023-03-05T12:55:27;15.55;;;7.85;;
19891;SDS011;10108;50.142;8.724;2023-03-05T12:58:23;13.68;;;7.53;;
19891;SDS011;10108;50.142;8.724;2023-03-05T13:03:29;14.75;;;7.30;;
19891;SDS011;10108;50.142;8.724;2023-03-05T13:05:58;14.63;;;7.10;;
19891;SDS011;10108;50.142;8.724;2023-03-05T13:08:26;14.77;;;7.03;;
19891;SDS011;10108;50.142;8.724;2023-03-05T13:10:57;11.48;;;6.70;;
19891;SDS011;10108;50.142;8.724;2023-03-05T13:13:24;13.65;;;6.70;;
19891;SDS011;10108;50.142;8.724;2023-03-05T13:15:51;11.75;;;6.10;;
19891;SDS011;10108;50.142;8.724;2023-03-05T13:18:24;12.35;;;6.80;;
19891;SDS011;10108;50.142;8.724;2023-03-05T13:21:01;12.23;;;6.68;;
19891;SDS011;10108;50.142;8.724;2023-03-05T13:23:29;14.38;;;7.03;;
19891;SDS011;10108;50.142;8.724;2023-03-05T13:26:00;12.15;;;6.15;;
19891;SDS011;10108;50.142;8.724;2023-03-05T13:28:27;11.52;;;6.63;;
19891;SDS011;10108;50.142;8.724;2023-03-05T13:31:01;13.00;;;6.85;;
19891;SDS011;10108;50.142;8.724;2023-03-05T13:33:30;11.77;;;6.30;;
19891;SDS011;10108;50.142;8.724;2023-03-05T13:35:57;11.50;;;6.05;;
19891;SDS011;10108;50.142;8.724;2023-03-05T13:38:32;12.15;;;5.68;;
19891;SDS011;10108;50.142;8.724;2023-03-05T13:41:03;11.77;;;5.72;;
19891;SDS011;10108;50.142;8.724;2023-03-05T13:43:30;8.80;;;5.28;;
19891;SDS011;10108;50.142;8.724;2023-03-05T13:45:56;11.18;;;5.68;;
19891;SDS011;10108;50.142;8.724;2023-03-05T13:48:24;10.77;;;5.25;;
19891;SDS011;10108;50.142;8.724;2023-03-05T13:50:55;7.68;;;4.63;;
19891;SDS011;10108;50.142;8.724;2023-03-05T13:53:29;9.73;;;5.22;;
19891;SDS011;10108;50.142;8.724;2023-03-05T13:55:56;8.23;;;4.80;;
19891;SDS011;10108;50.142;8.724;2023-03-05T14:01:17;9.80;;;5.07;;
19891;SDS011;10108;50.142;8.724;2023-03-05T14:03:50;10.85;;;4.63;;
19891;SDS011;10108;50.142;8.724;2023-03-05T14:06:19;6.75;;;4.28;;
19891;SDS011;10108;50.142;8.724;2023-03-05T14:09:05;8.75;;;4.85;;
19891;SDS011;10108;50.142;8.724;2023-03-05T14:11:33;8.52;;;5.10;;
19891;SDS011;10108;50.142;8.724;2023-03-05T14:14:24;10.35;;;4.95;;
19891;SDS011;10108;50.142;8.724;2023-03-05T14:16:49;8.95;;;5.30;;
19891;SDS011;10108;50.142;8.724;2023-03-05T14:19:30;11.57;;;5.85;;
19891;SDS011;10108;50.142;8.724;2023-03-05T14:21:57;11.05;;;5.85;;
19891;SDS011;10108;50.142;8.724;2023-03-05T14:24:24;11.07;;;5.50;;
19891;SDS011;10108;50.142;8.724;2023-03-05T14:29:21;6.75;;;4.60;;
19891;SDS011;10108;50.142;8.724;2023-03-05T14:34:36;11.07;;;5.30;;
19891;SDS011;10108;50.142;8.724;2023-03-05T14:37:04;8.43;;;5.00;;
19891;SDS011;10108;50.142;8.724;2023-03-05T14:44:43;7.93;;;5.00;;
19891;SDS011;10108;50.142;8.724;2023-03-05T14:47:09;10.25;;;5.30;;
19891;SDS011;10108;50.142;8.724;2023-03-05T14:49:36;8.90;;;5.25;;
19891;SDS011;10108;50.142;8.724;2023-03-05T14:52:02;9.48;;;5.10;;
19891;SDS011;10108;50.142;8.724;2023-03-05T14:54:31;9.02;;;5.05;;
19891;SDS011;10108;50.142;8.724;2023-03-05T14:57:01;10.80;;;5.25;;
19891;SDS011;10108;50.142;8.724;2023-03-05T14:59:30;8.93;;;5.35;;
19891;SDS011;10108;50.142;8.724;2023-03-05T15:01:57;8.77;;;5.05;;
19891;SDS011;10108;50.142;8.724;2023-03-05T15:04:23;8.82;;;5.10;;
19891;SDS011;10108;50.142;8.724;2023-03-05T15:06:50;9.23;;;5.45;;
19891;SDS011;10108;50.142;8.724;2023-03-05T15:09:17;11.25;;;5.40;;
19891;SDS011;10108;50.142;8.724;2023-03-05T15:11:45;7.30;;;5.00;;
19891;SDS011;10108;50.142;8.724;2023-03-05T15:14:13;10.05;;;5.28;;
19891;SDS011;10108;50.142;8.724;2023-03-05T15:16:40;9.60;;;5.03;;
19891;SDS011;10108;50.142;8.724;2023-03-05T15:19:10;10.80;;;5.00;;
19891;SDS011;10108;50.142;8.724;2023-03-05T15:21:37;9.10;;;5.65;;
19891;SDS011;10108;50.142;8.724;2023-03-05T15:24:04;8.10;;;5.07;;
19891;SDS011;10108;50.142;8.724;2023-03-05T15:26:33;9.38;;;5.22;;
19891;SDS011;10108;50.142;8.724;2023-03-05T15:29:01;9.63;;;5.00;;
19891;SDS011;10108;50.142;8.724;2023-03-05T15:31:30;10.25;;;5.35;;
19891;SDS011;10108;50.142;8.724;2023-03-05T15:34:03;10.65;;;5.07;;
19891;SDS011;10108;50.142;8.724;2023-03-05T15:36:29;8.80;;;5.20;;
19891;SDS011;10108;50.142;8.724;2023-03-05T15:38:56;9.02;;;5.38;;
19891;SDS011;10108;50.142;8.724;2023-03-05T15:41:23;9.70;;;5.05;;
19891;SDS011;10108;50.142;8.724;2023-03-05T15:43:50;11.82;;;5.38;;
19891;SDS011;10108;50.142;8.724;2023-03-05T15:46:17;11.18;;;5.35;;
19891;SDS011;10108;50.142;8.724;2023-03-05T15:48:43;8.38;;;5.47;;
19891;SDS011;10108;50.142;8.724;2023-03-05T15:51:15;8.80;;;5.50;;
19891;SDS011;10108;50.142;8.724;2023-03-05T15:53:41;9.30;;;5.50;;
19891;SDS011;10108;50.142;8.724;2023-03-05T15:56:15;9.25;;;5.38;;
19891;SDS011;10108;50.142;8.724;2023-03-05T15:58:41;12.48;;;5.53;;